createdAt,value
2022-09-21T00:01:31.711Z,102280.00
2022-09-21T00:04:07.512Z,102285.00
2022-09-21T00:06:35.422Z,102280.00
2022-09-21T00:09:08.431Z,102279.00
2022-09-21T00:11:37.336Z,102288.00
2022-09-21T00:14:10.801Z,102273.00
2022-09-21T00:16:40.482Z,102284.00
2022-09-21T00:19:08.498Z,102288.00
2022-09-21T00:21:36.332Z,102280.00
2022-09-21T00:24:04.634Z,102293.00
2022-09-21T00:26:33.049Z,102292.00
2022-09-21T00:29:03.772Z,102286.00
2022-09-21T00:31:32.087Z,102295.00
2022-09-21T00:34:00.454Z,102295.00
2022-09-21T00:36:28.703Z,102290.00
2022-09-21T00:39:01.142Z,102291.00
2022-09-21T00:41:32.454Z,102298.00
2022-09-21T00:44:31.886Z,102296.00
2022-09-21T00:47:10.033Z,102288.00
2022-09-21T00:49:38.448Z,102289.00
2022-09-21T00:52:08.676Z,102300.00
2022-09-21T00:55:09.049Z,102298.00
2022-09-21T00:57:37.509Z,102301.00
2022-09-21T01:00:09.888Z,102302.00
2022-09-21T01:02:39.087Z,102295.00
2022-09-21T01:05:10.121Z,102297.00
2022-09-21T01:07:42.441Z,102291.00
2022-09-21T01:10:17.027Z,102303.00
2022-09-21T01:12:46.935Z,102303.00
2022-09-21T01:16:00.658Z,102302.00
2022-09-21T01:18:40.757Z,102300.00
2022-09-21T01:21:31.234Z,102295.00
2022-09-21T01:24:16.457Z,102299.00
2022-09-21T01:27:40.952Z,102306.00
2022-09-21T01:30:20.465Z,102301.00
2022-09-21T01:33:01.975Z,102307.00
2022-09-21T01:35:41.571Z,102291.00
2022-09-21T01:38:46.948Z,102299.00
2022-09-21T01:41:20.042Z,102300.00
2022-09-21T01:43:57.252Z,102303.00
2022-09-21T01:46:32.829Z,102294.00
2022-09-21T01:49:10.840Z,102304.00
2022-09-21T01:51:47.027Z,102304.00
2022-09-21T01:54:28.495Z,102296.00
2022-09-21T01:57:19.587Z,102296.00
2022-09-21T01:59:53.019Z,102296.00
2022-09-21T02:02:44.432Z,102289.00
2022-09-21T02:05:13.666Z,102285.00
2022-09-21T02:07:41.572Z,102293.00
2022-09-21T02:10:17.925Z,102309.00
2022-09-21T02:12:46.094Z,102296.00
2022-09-21T02:15:13.738Z,102295.00
2022-09-21T02:18:07.154Z,102295.00
2022-09-21T02:20:52.314Z,102298.00
2022-09-21T02:23:43.838Z,102296.00
2022-09-21T02:26:26.696Z,102300.00
2022-09-21T02:29:18.679Z,102303.00
2022-09-21T02:32:23.897Z,102302.00
2022-09-21T02:35:03.647Z,102287.00
2022-09-21T02:38:03.812Z,102293.00
2022-09-21T02:40:40.417Z,102296.00
2022-09-21T02:43:22.624Z,102294.00
2022-09-21T02:46:00.544Z,102296.00
2022-09-21T02:48:37.257Z,102295.00
2022-09-21T02:51:14.845Z,102289.00
2022-09-21T02:53:45.016Z,102293.00
2022-09-21T02:56:14.021Z,102283.00
2022-09-21T02:58:49.979Z,102285.00
2022-09-21T03:01:19.574Z,102288.00
2022-09-21T03:03:46.904Z,102296.00
2022-09-21T03:06:14.177Z,102297.00
2022-09-21T03:08:41.734Z,102301.00
2022-09-21T03:11:11.058Z,102295.00
2022-09-21T03:13:38.234Z,102302.00
2022-09-21T03:16:07.808Z,102303.00
2022-09-21T03:18:35.309Z,102304.00
2022-09-21T03:21:03.479Z,102311.00
2022-09-21T03:23:30.736Z,102315.00
2022-09-21T03:25:57.896Z,102300.00
2022-09-21T03:28:25.078Z,102313.00
2022-09-21T03:30:52.973Z,102307.00
2022-09-21T03:33:21.047Z,102304.00
2022-09-21T03:35:52.808Z,102308.00
2022-09-21T03:38:25.041Z,102314.00
2022-09-21T03:40:52.816Z,102311.00
2022-09-21T03:43:26.059Z,102324.00
2022-09-21T03:45:53.773Z,102323.00
2022-09-21T03:48:22.381Z,102323.00
2022-09-21T03:50:50.070Z,102312.00
2022-09-21T03:53:17.345Z,102326.00
2022-09-21T03:55:44.564Z,102318.00
2022-09-21T03:58:14.770Z,102320.00
2022-09-21T04:00:42.483Z,102318.00
2022-09-21T04:03:09.986Z,102322.00
2022-09-21T04:05:43.515Z,102321.00
2022-09-21T04:08:10.755Z,102326.00
2022-09-21T04:10:42.308Z,102319.00
2022-09-21T04:13:13.915Z,102320.00
2022-09-21T04:15:43.214Z,102325.00
2022-09-21T04:18:10.573Z,102321.00
2022-09-21T04:20:37.815Z,102317.00
2022-09-21T04:23:04.940Z,102327.00
2022-09-21T04:25:33.714Z,102324.00
2022-09-21T04:28:09.457Z,102317.00
2022-09-21T04:30:38.018Z,102331.00
2022-09-21T04:33:06.353Z,102329.00
2022-09-21T04:35:33.486Z,102325.00
2022-09-21T04:38:03.537Z,102332.00
2022-09-21T04:40:31.243Z,102328.00
2022-09-21T04:42:58.773Z,102332.00
2022-09-21T04:45:26.075Z,102332.00
2022-09-21T04:47:53.266Z,102332.00
2022-09-21T04:50:20.948Z,102337.00
2022-09-21T04:52:48.513Z,102335.00
2022-09-21T04:55:17.974Z,102341.00
2022-09-21T04:57:45.261Z,102340.00
2022-09-21T05:00:13.102Z,102348.00
2022-09-21T05:02:40.199Z,102343.00
2022-09-21T05:05:07.838Z,102340.00
2022-09-21T05:07:35.073Z,102334.00
2022-09-21T05:10:05.252Z,102346.00
2022-09-21T05:12:36.024Z,102343.00
2022-09-21T05:15:06.822Z,102339.00
2022-09-21T05:17:34.357Z,102337.00
2022-09-21T05:20:01.746Z,102353.00
2022-09-21T05:22:29.260Z,102349.00
2022-09-21T05:24:56.314Z,102356.00
2022-09-21T05:27:23.520Z,102357.00
2022-09-21T05:29:51.444Z,102338.00
2022-09-21T05:32:21.271Z,102347.00
2022-09-21T05:35:42.402Z,102366.00
2022-09-21T05:38:23.768Z,102359.00
2022-09-21T05:40:51.519Z,102366.00
2022-09-21T05:43:19.153Z,102360.00
2022-09-21T05:45:53.263Z,102367.00
2022-09-21T05:48:52.943Z,102361.00
2022-09-21T05:52:13.540Z,102366.00
2022-09-21T05:55:28.525Z,102377.00
2022-09-21T05:58:44.021Z,102378.00
2022-09-21T06:01:40.898Z,102378.00
2022-09-21T06:04:14.931Z,102370.00
2022-09-21T06:06:42.165Z,102371.00
2022-09-21T06:09:09.369Z,102378.00
2022-09-21T06:11:36.627Z,102368.00
2022-09-21T06:14:03.921Z,102383.00
2022-09-21T06:16:43.514Z,102386.00
2022-09-21T06:19:14.574Z,102378.00
2022-09-21T06:21:41.631Z,102391.00
2022-09-21T06:24:08.978Z,102394.00
2022-09-21T06:26:36.261Z,102386.00
2022-09-21T06:29:03.825Z,102376.00
2022-09-21T06:31:31.412Z,102384.00
2022-09-21T06:33:58.712Z,102392.00
2022-09-21T06:36:25.975Z,102399.00
2022-09-21T06:38:53.320Z,102391.00
2022-09-21T06:41:21.540Z,102390.00
2022-09-21T06:43:48.995Z,102389.00
2022-09-21T06:46:16.199Z,102396.00
2022-09-21T06:48:43.380Z,102388.00
2022-09-21T06:51:10.635Z,102390.00
2022-09-21T06:53:37.768Z,102392.00
2022-09-21T06:56:08.694Z,102391.00
2022-09-21T06:58:37.928Z,102395.00
2022-09-21T07:01:13.026Z,102387.00
2022-09-21T07:03:42.905Z,102386.00
2022-09-21T07:06:14.145Z,102375.00
2022-09-21T07:11:29.710Z,102374.00
2022-09-21T07:13:58.170Z,102397.00
2022-09-21T07:17:03.784Z,102387.00
2022-09-21T07:19:30.929Z,102386.00
2022-09-21T07:21:58.221Z,102381.00
2022-09-21T07:24:25.543Z,102369.00
2022-09-21T07:26:53.277Z,102383.00
2022-09-21T07:29:20.309Z,102383.00
2022-09-21T07:31:48.520Z,102366.00
2022-09-21T07:34:15.884Z,102378.00
2022-09-21T07:36:43.301Z,102378.00
2022-09-21T07:39:10.918Z,102383.00
2022-09-21T07:41:38.873Z,102377.00
2022-09-21T07:44:06.245Z,102373.00
2022-09-21T07:46:33.561Z,102385.00
2022-09-21T07:49:00.720Z,102363.00
2022-09-21T07:51:27.797Z,102373.00
2022-09-21T07:53:57.126Z,102362.00
2022-09-21T07:56:25.048Z,102367.00
2022-09-21T07:59:07.290Z,102369.00
2022-09-21T08:01:42.270Z,102371.00
2022-09-21T08:04:11.636Z,102368.00
2022-09-21T08:06:42.500Z,102372.00
2022-09-21T08:09:09.758Z,102359.00
2022-09-21T08:11:37.864Z,102364.00
2022-09-21T08:14:05.404Z,102370.00
2022-09-21T08:16:34.171Z,102363.00
2022-09-21T08:19:02.425Z,102375.00
2022-09-21T08:21:29.944Z,102360.00
2022-09-21T08:23:57.881Z,102361.00
2022-09-21T08:26:25.216Z,102376.00
2022-09-21T08:28:58.864Z,102382.00
2022-09-21T08:31:26.905Z,102364.00
2022-09-21T08:33:57.125Z,102383.00
2022-09-21T08:36:24.609Z,102377.00
2022-09-21T08:38:51.768Z,102371.00
2022-09-21T08:42:04.570Z,102377.00
2022-09-21T08:44:57.138Z,102369.00
2022-09-21T08:47:41.898Z,102374.00
2022-09-21T08:50:22.873Z,102375.00
2022-09-21T08:52:57.904Z,102370.00
2022-09-21T08:55:25.148Z,102375.00
2022-09-21T08:57:53.417Z,102377.00
2022-09-21T09:00:21.294Z,102367.00
2022-09-21T09:03:08.888Z,102366.00
2022-09-21T09:06:01.355Z,102373.00
2022-09-21T09:09:12.648Z,102377.00
2022-09-21T09:12:11.377Z,102369.00
2022-09-21T09:15:06.628Z,102365.00
2022-09-21T09:17:47.579Z,102364.00
2022-09-21T09:20:23.874Z,102372.00
2022-09-21T09:23:10.622Z,102368.00
2022-09-21T09:25:44.913Z,102364.00
2022-09-21T09:28:45.030Z,102373.00
2022-09-21T09:31:34.160Z,102360.00
2022-09-21T09:34:10.073Z,102365.00
2022-09-21T09:36:57.700Z,102348.00
2022-09-21T09:39:29.516Z,102352.00
2022-09-21T09:42:05.540Z,102359.00
2022-09-21T09:45:25.033Z,102356.00
2022-09-21T09:48:20.392Z,102351.00
2022-09-21T09:50:47.994Z,102349.00
2022-09-21T09:53:23.696Z,102349.00
2022-09-21T09:55:59.188Z,102353.00
2022-09-21T09:58:53.509Z,102353.00
2022-09-21T10:01:47.317Z,102353.00
2022-09-21T10:04:17.763Z,102354.00
2022-09-21T10:06:46.810Z,102352.00
2022-09-21T10:09:31.396Z,102351.00
2022-09-21T10:12:23.897Z,102357.00
2022-09-21T10:14:55.134Z,102338.00
2022-09-21T10:17:25.434Z,102351.00
2022-09-21T10:20:08.236Z,102348.00
2022-09-21T10:22:35.561Z,102342.00
2022-09-21T10:25:06.295Z,102338.00
2022-09-21T10:27:44.181Z,102349.00
2022-09-21T10:30:30.086Z,102341.00
2022-09-21T10:32:59.618Z,102340.00
2022-09-21T10:35:27.480Z,102338.00
2022-09-21T10:38:22.773Z,102347.00
2022-09-21T10:40:50.849Z,102343.00
2022-09-21T10:43:43.792Z,102341.00
2022-09-21T10:46:12.515Z,102347.00
2022-09-21T10:48:39.642Z,102340.00
2022-09-21T10:51:19.094Z,102345.00
2022-09-21T10:53:54.488Z,102346.00
2022-09-21T10:56:22.312Z,102343.00
2022-09-21T10:59:27.386Z,102346.00
2022-09-21T11:01:58.358Z,102349.00
2022-09-21T11:04:38.917Z,102354.00
2022-09-21T11:07:09.816Z,102351.00
2022-09-21T11:09:47.314Z,102344.00
2022-09-21T11:12:31.379Z,102348.00
2022-09-21T11:15:20.801Z,102345.00
2022-09-21T11:18:20.509Z,102352.00
2022-09-21T11:21:02.256Z,102352.00
2022-09-21T11:23:55.446Z,102355.00
2022-09-21T11:26:34.070Z,102357.00
2022-09-21T11:29:21.722Z,102353.00
2022-09-21T11:32:40.531Z,102360.00
2022-09-21T11:35:43.253Z,102356.00
2022-09-21T11:38:18.583Z,102356.00
2022-09-21T11:41:14.101Z,102359.00
2022-09-21T11:44:12.716Z,102356.00
2022-09-21T11:46:57.275Z,102360.00
2022-09-21T11:50:28.852Z,102362.00
2022-09-21T11:53:37.211Z,102356.00
2022-09-21T11:56:31.724Z,102363.00
2022-09-21T11:59:20.309Z,102348.00
2022-09-21T12:02:14.769Z,102357.00
2022-09-21T12:05:15.706Z,102345.00
2022-09-21T12:08:18.012Z,102351.00
2022-09-21T12:11:28.514Z,102351.00
2022-09-21T12:14:57.469Z,102353.00
2022-09-21T12:17:58.027Z,102347.00
2022-09-21T12:20:53.501Z,102338.00
2022-09-21T12:23:53.258Z,102342.00
2022-09-21T12:26:42.833Z,102342.00
2022-09-21T12:29:25.508Z,102343.00
2022-09-21T12:32:28.994Z,102336.00
2022-09-21T12:35:10.025Z,102339.00
2022-09-21T12:37:57.087Z,102343.00
2022-09-21T12:40:48.201Z,102334.00
2022-09-21T12:44:17.701Z,102329.00
2022-09-21T12:46:54.656Z,102330.00
2022-09-21T12:49:32.466Z,102332.00
2022-09-21T12:52:06.919Z,102330.00
2022-09-21T12:54:53.874Z,102323.00
2022-09-21T12:57:46.006Z,102323.00
2022-09-21T13:00:24.595Z,102322.00
2022-09-21T13:03:10.542Z,102315.00
2022-09-21T13:06:02.000Z,102311.00
2022-09-21T13:08:47.598Z,102304.00
2022-09-21T13:11:21.306Z,102306.00
2022-09-21T13:14:02.401Z,102302.00
2022-09-21T13:16:39.436Z,102290.00
2022-09-21T13:19:23.697Z,102287.00
2022-09-21T13:22:21.890Z,102284.00
2022-09-21T13:25:21.846Z,102284.00
2022-09-21T13:28:07.713Z,102273.00
2022-09-21T13:30:42.405Z,102277.00
2022-09-21T13:33:22.955Z,102273.00
2022-09-21T13:36:10.669Z,102275.00
2022-09-21T13:38:41.156Z,102276.00
2022-09-21T13:41:40.294Z,102273.00
2022-09-21T13:44:43.879Z,102270.00
2022-09-21T13:47:13.463Z,102266.00
2022-09-21T13:49:54.875Z,102266.00
2022-09-21T13:52:37.556Z,102267.00
2022-09-21T13:55:27.714Z,102260.00
2022-09-21T13:57:59.117Z,102260.00
2022-09-21T14:00:50.556Z,102258.00
2022-09-21T14:03:28.236Z,102254.00
2022-09-21T14:06:03.894Z,102245.00
2022-09-21T14:08:37.480Z,102246.00
2022-09-21T14:11:31.182Z,102242.00
2022-09-21T14:14:42.245Z,102235.00
2022-09-21T14:17:46.089Z,102237.00
2022-09-21T14:20:38.673Z,102231.00
2022-09-21T14:23:16.456Z,102228.00
2022-09-21T14:25:59.178Z,102225.00
2022-09-21T14:28:53.490Z,102238.00
2022-09-21T14:31:38.262Z,102227.00
2022-09-21T14:34:15.961Z,102234.00
2022-09-21T14:36:50.088Z,102224.00
2022-09-21T14:39:25.097Z,102224.00
2022-09-21T14:41:58.133Z,102223.00
2022-09-21T14:44:31.756Z,102230.00
2022-09-21T14:47:22.969Z,102226.00
2022-09-21T14:50:32.913Z,102225.00
2022-09-21T14:53:48.193Z,102225.00
2022-09-21T14:56:15.242Z,102229.00
2022-09-21T14:59:15.773Z,102238.00
2022-09-21T15:02:03.509Z,102242.00
2022-09-21T15:04:59.547Z,102228.00
2022-09-21T15:07:54.169Z,102232.00
2022-09-21T15:11:16.112Z,102228.00
2022-09-21T15:14:27.364Z,102224.00
2022-09-21T15:16:54.910Z,102215.00
2022-09-21T15:19:28.066Z,102223.00
2022-09-21T15:22:21.036Z,102213.00
2022-09-21T15:25:03.623Z,102217.00
2022-09-21T15:27:35.753Z,102213.00
2022-09-21T15:30:06.919Z,102209.00
2022-09-21T15:32:45.045Z,102210.00
2022-09-21T15:35:29.086Z,102212.00
2022-09-21T15:38:00.338Z,102212.00
2022-09-21T15:40:36.505Z,102222.00
2022-09-21T15:43:17.023Z,102220.00
2022-09-21T15:45:59.516Z,102221.00
2022-09-21T15:48:41.305Z,102218.00
2022-09-21T15:51:39.779Z,102218.00
2022-09-21T15:54:25.529Z,102217.00
2022-09-21T15:56:53.533Z,102220.00
2022-09-21T15:59:22.389Z,102216.00
2022-09-21T16:01:55.959Z,102217.00
2022-09-21T16:04:27.236Z,102216.00
2022-09-21T16:07:04.874Z,102218.00
2022-09-21T16:09:50.222Z,102225.00
2022-09-21T16:12:43.972Z,102217.00
2022-09-21T16:15:29.333Z,102220.00
2022-09-21T16:18:04.718Z,102228.00
2022-09-21T16:20:47.574Z,102215.00
2022-09-21T16:23:26.829Z,102219.00
2022-09-21T16:26:02.275Z,102225.00
2022-09-21T16:28:41.052Z,102221.00
2022-09-21T16:31:31.653Z,102227.00
2022-09-21T16:34:07.565Z,102213.00
2022-09-21T16:36:38.362Z,102218.00
2022-09-21T16:39:14.914Z,102220.00
2022-09-21T16:41:47.485Z,102221.00
2022-09-21T16:44:25.714Z,102220.00
2022-09-21T16:47:00.044Z,102226.00
2022-09-21T16:49:32.821Z,102230.00
2022-09-21T16:52:01.520Z,102226.00
2022-09-21T16:54:29.463Z,102224.00
2022-09-21T16:57:00.874Z,102225.00
2022-09-21T16:59:28.898Z,102216.00
2022-09-21T17:01:58.381Z,102228.00
2022-09-21T17:04:30.208Z,102223.00
2022-09-21T17:06:58.607Z,102236.00
2022-09-21T17:09:38.503Z,102215.00
2022-09-21T17:12:11.185Z,102226.00
2022-09-21T17:14:44.320Z,102212.00
2022-09-21T17:17:25.565Z,102221.00
2022-09-21T17:19:54.093Z,102227.00
2022-09-21T17:22:22.047Z,102233.00
2022-09-21T17:24:52.666Z,102220.00
2022-09-21T17:27:28.714Z,102228.00
2022-09-21T17:30:07.558Z,102221.00
2022-09-21T17:32:57.718Z,102222.00
2022-09-21T17:35:44.460Z,102217.00
2022-09-21T17:38:28.882Z,102226.00
2022-09-21T17:41:55.475Z,102231.00
2022-09-21T17:44:53.316Z,102236.00
2022-09-21T17:47:39.610Z,102241.00
2022-09-21T17:50:28.565Z,102234.00
2022-09-21T17:53:16.694Z,102243.00
2022-09-21T17:56:19.518Z,102225.00
2022-09-21T17:59:10.589Z,102230.00
2022-09-21T18:02:07.677Z,102230.00
2022-09-21T18:04:39.183Z,102243.00
2022-09-21T18:07:08.333Z,102236.00
2022-09-21T18:09:43.132Z,102243.00
2022-09-21T18:12:48.249Z,102234.00
2022-09-21T18:15:34.908Z,102236.00
2022-09-21T18:18:31.657Z,102241.00
2022-09-21T18:21:17.271Z,102240.00
2022-09-21T18:24:13.313Z,102253.00
2022-09-21T18:26:50.098Z,102247.00
2022-09-21T18:29:43.247Z,102236.00
2022-09-21T18:33:13.239Z,102250.00
2022-09-21T18:37:03.645Z,102253.00
2022-09-21T18:39:53.860Z,102255.00
2022-09-21T18:43:08.833Z,102249.00
2022-09-21T18:45:50.769Z,102246.00
2022-09-21T18:49:09.548Z,102250.00
2022-09-21T18:52:10.182Z,102251.00
2022-09-21T18:54:44.119Z,102241.00
2022-09-21T18:57:20.950Z,102253.00
2022-09-21T18:59:51.646Z,102240.00
2022-09-21T19:02:26.725Z,102246.00
2022-09-21T19:04:59.366Z,102245.00
2022-09-21T19:08:12.724Z,102249.00
2022-09-21T19:10:59.641Z,102243.00
2022-09-21T19:13:56.265Z,102257.00
2022-09-21T19:16:32.219Z,102255.00
2022-09-21T19:20:20.818Z,102258.00
2022-09-21T19:23:40.190Z,102263.00
2022-09-21T19:26:47.451Z,102258.00
2022-09-21T19:30:02.083Z,102261.00
2022-09-21T19:32:46.845Z,102256.00
2022-09-21T19:35:31.243Z,102242.00
2022-09-21T19:38:17.906Z,102241.00
2022-09-21T19:41:01.593Z,102260.00
2022-09-21T19:43:51.130Z,102252.00
2022-09-21T19:46:48.089Z,102273.00
2022-09-21T19:50:05.556Z,102256.00
2022-09-21T19:52:43.210Z,102256.00
2022-09-21T19:55:48.050Z,102257.00
2022-09-21T19:58:34.166Z,102243.00
2022-09-21T20:01:01.835Z,102247.00
2022-09-21T20:03:48.832Z,102247.00
2022-09-21T20:06:44.126Z,102245.00
2022-09-21T20:09:35.428Z,102249.00
2022-09-21T20:12:26.088Z,102249.00
2022-09-21T20:15:15.970Z,102257.00
2022-09-21T20:17:58.305Z,102254.00
2022-09-21T20:20:27.163Z,102251.00
2022-09-21T20:22:55.450Z,102251.00
2022-09-21T20:25:37.899Z,102246.00
2022-09-21T20:28:06.368Z,102248.00
2022-09-21T20:30:40.236Z,102253.00
2022-09-21T20:33:15.469Z,102252.00
2022-09-21T20:35:44.145Z,102246.00
2022-09-21T20:38:11.987Z,102254.00
2022-09-21T20:40:40.550Z,102245.00
2022-09-21T20:43:09.862Z,102248.00
2022-09-21T20:46:14.840Z,102258.00
2022-09-21T20:48:43.048Z,102243.00
2022-09-21T20:51:11.885Z,102251.00
2022-09-21T20:53:40.708Z,102249.00
2022-09-21T20:56:07.906Z,102251.00
2022-09-21T20:58:36.044Z,102242.00
2022-09-21T21:01:07.354Z,102231.00
2022-09-21T21:03:34.684Z,102230.00
2022-09-21T21:06:23.440Z,102249.00
2022-09-21T21:08:50.905Z,102243.00
2022-09-21T21:11:18.173Z,102245.00
2022-09-21T21:13:45.336Z,102244.00
2022-09-21T21:16:12.768Z,102248.00
2022-09-21T21:18:41.851Z,102251.00
2022-09-21T21:21:09.191Z,102245.00
2022-09-21T21:23:55.271Z,102246.00
2022-09-21T21:26:38.260Z,102245.00
2022-09-21T21:29:09.864Z,102226.00
2022-09-21T21:32:33.507Z,102248.00
2022-09-21T21:35:00.863Z,102236.00
2022-09-21T21:37:29.224Z,102240.00
2022-09-21T21:39:57.119Z,102242.00
2022-09-21T21:42:27.266Z,102231.00
2022-09-21T21:44:56.440Z,102234.00
2022-09-21T21:47:40.902Z,102236.00
2022-09-21T21:50:10.756Z,102229.00
2022-09-21T21:52:38.618Z,102229.00
2022-09-21T21:55:07.020Z,102227.00
2022-09-21T21:57:34.913Z,102233.00
2022-09-21T22:00:02.395Z,102216.00
2022-09-21T22:02:30.120Z,102216.00
2022-09-21T22:04:57.367Z,102222.00
2022-09-21T22:07:24.482Z,102216.00
2022-09-21T22:09:51.799Z,102228.00
2022-09-21T22:12:18.888Z,102222.00
2022-09-21T22:14:46.647Z,102215.00
2022-09-21T22:17:14.606Z,102207.00
2022-09-21T22:19:42.500Z,102218.00
2022-09-21T22:22:09.712Z,102220.00
2022-09-21T22:24:36.819Z,102222.00
2022-09-21T22:27:04.094Z,102230.00
2022-09-21T22:29:31.346Z,102209.00
2022-09-21T22:31:58.664Z,102218.00
2022-09-21T22:34:25.901Z,102220.00
2022-09-21T22:36:53.909Z,102216.00
2022-09-21T22:39:21.433Z,102218.00
2022-09-21T22:41:48.668Z,102215.00
2022-09-21T22:44:15.936Z,102222.00
2022-09-21T22:46:43.058Z,102216.00
2022-09-21T22:49:10.321Z,102217.00
2022-09-21T22:51:38.256Z,102217.00
2022-09-21T22:54:06.229Z,102215.00
2022-09-21T22:56:34.283Z,102220.00
2022-09-21T22:59:05.880Z,102207.00
2022-09-21T23:01:39.603Z,102216.00
2022-09-21T23:04:13.554Z,102208.00
2022-09-21T23:06:43.816Z,102200.00
2022-09-21T23:09:21.333Z,102215.00
2022-09-21T23:11:53.926Z,102207.00
2022-09-21T23:14:23.091Z,102214.00
2022-09-21T23:16:50.703Z,102212.00
2022-09-21T23:19:17.941Z,102191.00
2022-09-21T23:21:51.453Z,102209.00
2022-09-21T23:24:19.914Z,102212.00
2022-09-21T23:26:48.416Z,102206.00
2022-09-21T23:29:16.622Z,102207.00
2022-09-21T23:31:45.707Z,102208.00
2022-09-21T23:34:14.901Z,102208.00
2022-09-21T23:36:44.261Z,102205.00
2022-09-21T23:39:14.445Z,102212.00
2022-09-21T23:41:41.993Z,102200.00
2022-09-21T23:44:09.619Z,102204.00
2022-09-21T23:46:39.366Z,102205.00
2022-09-21T23:49:06.783Z,102195.00
2022-09-21T23:51:34.828Z,102193.00
2022-09-21T23:54:02.723Z,102193.00
2022-09-21T23:56:30.498Z,102196.00
2022-09-21T23:58:58.620Z,102194.00
